sensor_id;sensor_type;location;lat;lon;timestamp;P1;durP1;ratioP1;P2;durP2;ratioP2
3543;SDS011;1786;52.870;9.578;2022-11-23T00:02:03;6.80;;;4.20;;
3543;SDS011;1786;52.870;9.578;2022-11-23T00:04:29;6.40;;;4.70;;
3543;SDS011;1786;52.870;9.578;2022-11-23T00:06:56;9.07;;;4.40;;
3543;SDS011;1786;52.870;9.578;2022-11-23T00:09:23;10.00;;;5.43;;
3543;SDS011;1786;52.870;9.578;2022-11-23T00:11:49;12.43;;;4.17;;
3543;SDS011;1786;52.870;9.578;2022-11-23T00:14:16;14.20;;;5.50;;
3543;SDS011;1786;52.870;9.578;2022-11-23T00:16:42;6.37;;;4.60;;
3543;SDS011;1786;52.870;9.578;2022-11-23T00:19:09;8.23;;;4.80;;
3543;SDS011;1786;52.870;9.578;2022-11-23T00:21:35;8.10;;;5.10;;
3543;SDS011;1786;52.870;9.578;2022-11-23T00:24:02;7.60;;;4.10;;
3543;SDS011;1786;52.870;9.578;2022-11-23T00:26:29;9.23;;;4.60;;
3543;SDS011;1786;52.870;9.578;2022-11-23T00:28:55;5.83;;;3.77;;
3543;SDS011;1786;52.870;9.578;2022-11-23T00:31:25;7.33;;;4.03;;
3543;SDS011;1786;52.870;9.578;2022-11-23T00:33:52;6.03;;;4.23;;
3543;SDS011;1786;52.870;9.578;2022-11-23T00:36:21;7.00;;;5.43;;
3543;SDS011;1786;52.870;9.578;2022-11-23T00:38:50;8.70;;;3.57;;
3543;SDS011;1786;52.870;9.578;2022-11-23T00:41:20;8.70;;;4.23;;
3543;SDS011;1786;52.870;9.578;2022-11-23T00:43:48;6.30;;;4.03;;
3543;SDS011;1786;52.870;9.578;2022-11-23T00:46:19;10.57;;;4.40;;
3543;SDS011;1786;52.870;9.578;2022-11-23T00:48:48;11.77;;;4.93;;
3543;SDS011;1786;52.870;9.578;2022-11-23T00:51:18;4.30;;;3.30;;
3543;SDS011;1786;52.870;9.578;2022-11-23T00:53:49;9.00;;;3.80;;
3543;SDS011;1786;52.870;9.578;2022-11-23T00:56:17;9.40;;;4.10;;
3543;SDS011;1786;52.870;9.578;2022-11-23T00:58:46;5.23;;;3.93;;
3543;SDS011;1786;52.870;9.578;2022-11-23T01:01:14;7.70;;;4.10;;
3543;SDS011;1786;52.870;9.578;2022-11-23T01:03:44;9.37;;;3.53;;
3543;SDS011;1786;52.870;9.578;2022-11-23T01:06:13;7.00;;;3.63;;
3543;SDS011;1786;52.870;9.578;2022-11-23T01:08:47;3.93;;;3.40;;
3543;SDS011;1786;52.870;9.578;2022-11-23T01:11:18;6.87;;;3.97;;
3543;SDS011;1786;52.870;9.578;2022-11-23T01:13:46;13.57;;;3.87;;
3543;SDS011;1786;52.870;9.578;2022-11-23T01:16:20;5.27;;;3.77;;
3543;SDS011;1786;52.870;9.578;2022-11-23T01:18:53;5.80;;;3.70;;
3543;SDS011;1786;52.870;9.578;2022-11-23T01:21:24;6.40;;;2.93;;
3543;SDS011;1786;52.870;9.578;2022-11-23T01:23:52;6.43;;;4.10;;
3543;SDS011;1786;52.870;9.578;2022-11-23T01:26:19;6.37;;;3.50;;
3543;SDS011;1786;52.870;9.578;2022-11-23T01:28:47;9.13;;;4.00;;
3543;SDS011;1786;52.870;9.578;2022-11-23T01:31:15;6.03;;;3.97;;
3543;SDS011;1786;52.870;9.578;2022-11-23T01:33:45;5.27;;;3.70;;
3543;SDS011;1786;52.870;9.578;2022-11-23T01:36:16;10.23;;;3.40;;
3543;SDS011;1786;52.870;9.578;2022-11-23T01:38:45;9.20;;;3.63;;
3543;SDS011;1786;52.870;9.578;2022-11-23T01:41:14;5.13;;;3.20;;
3543;SDS011;1786;52.870;9.578;2022-11-23T01:43:43;8.80;;;3.90;;
3543;SDS011;1786;52.870;9.578;2022-11-23T01:46:10;7.60;;;3.30;;
3543;SDS011;1786;52.870;9.578;2022-11-23T01:48:44;6.67;;;3.30;;
3543;SDS011;1786;52.870;9.578;2022-11-23T01:51:22;3.03;;;2.83;;
3543;SDS011;1786;52.870;9.578;2022-11-23T01:53:53;10.67;;;4.07;;
3543;SDS011;1786;52.870;9.578;2022-11-23T01:56:25;9.70;;;3.80;;
3543;SDS011;1786;52.870;9.578;2022-11-23T01:58:56;4.90;;;3.50;;
3543;SDS011;1786;52.870;9.578;2022-11-23T02:01:27;10.30;;;3.60;;
3543;SDS011;1786;52.870;9.578;2022-11-23T02:03:55;3.60;;;3.30;;
3543;SDS011;1786;52.870;9.578;2022-11-23T02:06:26;5.23;;;3.23;;
3543;SDS011;1786;52.870;9.578;2022-11-23T02:08:53;7.93;;;3.37;;
3543;SDS011;1786;52.870;9.578;2022-11-23T02:11:19;6.00;;;3.20;;
3543;SDS011;1786;52.870;9.578;2022-11-23T02:13:47;4.57;;;3.53;;
3543;SDS011;1786;52.870;9.578;2022-11-23T02:16:16;4.23;;;3.10;;
3543;SDS011;1786;52.870;9.578;2022-11-23T02:18:44;5.73;;;3.20;;
3543;SDS011;1786;52.870;9.578;2022-11-23T02:21:13;6.10;;;3.13;;
3543;SDS011;1786;52.870;9.578;2022-11-23T02:26:24;5.07;;;3.20;;
3543;SDS011;1786;52.870;9.578;2022-11-23T02:28:54;5.20;;;2.90;;
3543;SDS011;1786;52.870;9.578;2022-11-23T02:31:29;5.63;;;2.97;;
3543;SDS011;1786;52.870;9.578;2022-11-23T02:33:55;9.20;;;2.97;;
3543;SDS011;1786;52.870;9.578;2022-11-23T02:39:11;3.40;;;3.00;;
3543;SDS011;1786;52.870;9.578;2022-11-23T02:41:49;5.70;;;2.90;;
3543;SDS011;1786;52.870;9.578;2022-11-23T02:44:26;3.57;;;2.80;;
3543;SDS011;1786;52.870;9.578;2022-11-23T02:46:56;4.03;;;2.53;;
3543;SDS011;1786;52.870;9.578;2022-11-23T02:49:24;3.20;;;2.30;;
3543;SDS011;1786;52.870;9.578;2022-11-23T02:51:51;4.37;;;3.23;;
3543;SDS011;1786;52.870;9.578;2022-11-23T02:54:18;4.33;;;3.03;;
3543;SDS011;1786;52.870;9.578;2022-11-23T02:56:45;6.83;;;3.40;;
3543;SDS011;1786;52.870;9.578;2022-11-23T02:59:12;2.57;;;2.37;;
3543;SDS011;1786;52.870;9.578;2022-11-23T03:01:41;5.13;;;3.03;;
3543;SDS011;1786;52.870;9.578;2022-11-23T03:04:07;6.57;;;2.97;;
3543;SDS011;1786;52.870;9.578;2022-11-23T03:06:35;4.37;;;2.47;;
3543;SDS011;1786;52.870;9.578;2022-11-23T03:09:03;6.30;;;2.80;;
3543;SDS011;1786;52.870;9.578;2022-11-23T03:11:31;12.23;;;3.60;;
3543;SDS011;1786;52.870;9.578;2022-11-23T03:14:00;6.33;;;2.97;;
3543;SDS011;1786;52.870;9.578;2022-11-23T03:16:28;3.60;;;2.40;;
3543;SDS011;1786;52.870;9.578;2022-11-23T03:18:58;5.93;;;2.97;;
3543;SDS011;1786;52.870;9.578;2022-11-23T03:21:25;4.80;;;2.80;;
3543;SDS011;1786;52.870;9.578;2022-11-23T03:23:53;6.60;;;3.30;;
3543;SDS011;1786;52.870;9.578;2022-11-23T03:26:20;5.40;;;2.97;;
3543;SDS011;1786;52.870;9.578;2022-11-23T03:28:56;3.20;;;2.77;;
3543;SDS011;1786;52.870;9.578;2022-11-23T03:31:26;6.27;;;2.33;;
3543;SDS011;1786;52.870;9.578;2022-11-23T03:33:54;2.50;;;2.10;;
3543;SDS011;1786;52.870;9.578;2022-11-23T03:36:24;7.33;;;2.73;;
3543;SDS011;1786;52.870;9.578;2022-11-23T03:38:51;5.90;;;2.77;;
3543;SDS011;1786;52.870;9.578;2022-11-23T03:41:53;6.90;;;3.03;;
3543;SDS011;1786;52.870;9.578;2022-11-23T03:44:23;6.43;;;2.77;;
3543;SDS011;1786;52.870;9.578;2022-11-23T03:46:49;11.00;;;2.70;;
3543;SDS011;1786;52.870;9.578;2022-11-23T03:49:16;3.90;;;2.60;;
3543;SDS011;1786;52.870;9.578;2022-11-23T03:51:43;8.03;;;2.07;;
3543;SDS011;1786;52.870;9.578;2022-11-23T03:54:10;3.00;;;2.17;;
3543;SDS011;1786;52.870;9.578;2022-11-23T03:56:37;3.87;;;2.70;;
3543;SDS011;1786;52.870;9.578;2022-11-23T03:59:04;6.40;;;2.87;;
3543;SDS011;1786;52.870;9.578;2022-11-23T04:01:31;4.73;;;2.90;;
3543;SDS011;1786;52.870;9.578;2022-11-23T04:04:02;4.37;;;2.50;;
3543;SDS011;1786;52.870;9.578;2022-11-23T04:06:48;6.80;;;3.17;;
3543;SDS011;1786;52.870;9.578;2022-11-23T04:09:19;6.73;;;3.13;;
3543;SDS011;1786;52.870;9.578;2022-11-23T04:12:09;5.73;;;2.30;;
3543;SDS011;1786;52.870;9.578;2022-11-23T04:14:37;3.77;;;2.70;;
3543;SDS011;1786;52.870;9.578;2022-11-23T04:17:03;2.60;;;2.17;;
3543;SDS011;1786;52.870;9.578;2022-11-23T04:19:31;4.37;;;3.17;;
3543;SDS011;1786;52.870;9.578;2022-11-23T04:21:58;10.53;;;2.53;;
3543;SDS011;1786;52.870;9.578;2022-11-23T04:24:28;7.23;;;2.77;;
3543;SDS011;1786;52.870;9.578;2022-11-23T04:29:36;7.63;;;2.77;;
3543;SDS011;1786;52.870;9.578;2022-11-23T04:32:03;4.67;;;2.87;;
3543;SDS011;1786;52.870;9.578;2022-11-23T04:34:30;7.90;;;3.27;;
3543;SDS011;1786;52.870;9.578;2022-11-23T04:36:59;12.20;;;3.43;;
3543;SDS011;1786;52.870;9.578;2022-11-23T04:39:31;3.23;;;2.63;;
3543;SDS011;1786;52.870;9.578;2022-11-23T04:42:10;6.77;;;2.43;;
3543;SDS011;1786;52.870;9.578;2022-11-23T04:44:37;6.03;;;3.13;;
3543;SDS011;1786;52.870;9.578;2022-11-23T04:47:06;5.90;;;3.40;;
3543;SDS011;1786;52.870;9.578;2022-11-23T04:49:35;5.00;;;2.47;;
3543;SDS011;1786;52.870;9.578;2022-11-23T04:52:03;5.77;;;2.90;;
3543;SDS011;1786;52.870;9.578;2022-11-23T04:54:35;5.50;;;2.20;;
3543;SDS011;1786;52.870;9.578;2022-11-23T04:57:06;4.80;;;2.70;;
3543;SDS011;1786;52.870;9.578;2022-11-23T04:59:33;6.10;;;2.73;;
3543;SDS011;1786;52.870;9.578;2022-11-23T05:02:00;6.27;;;3.07;;
3543;SDS011;1786;52.870;9.578;2022-11-23T05:04:36;5.90;;;2.93;;
3543;SDS011;1786;52.870;9.578;2022-11-23T05:07:03;6.40;;;3.20;;
3543;SDS011;1786;52.870;9.578;2022-11-23T05:09:32;7.67;;;2.50;;
3543;SDS011;1786;52.870;9.578;2022-11-23T05:12:07;7.10;;;3.17;;
3543;SDS011;1786;52.870;9.578;2022-11-23T05:14:35;4.93;;;3.70;;
3543;SDS011;1786;52.870;9.578;2022-11-23T05:17:02;16.37;;;3.30;;
3543;SDS011;1786;52.870;9.578;2022-11-23T05:19:29;5.40;;;3.20;;
3543;SDS011;1786;52.870;9.578;2022-11-23T05:21:56;11.50;;;4.87;;
3543;SDS011;1786;52.870;9.578;2022-11-23T05:24:24;6.97;;;3.10;;
3543;SDS011;1786;52.870;9.578;2022-11-23T05:27:02;8.40;;;4.53;;
3543;SDS011;1786;52.870;9.578;2022-11-23T05:29:29;3.40;;;3.00;;
3543;SDS011;1786;52.870;9.578;2022-11-23T05:31:56;9.70;;;4.73;;
3543;SDS011;1786;52.870;9.578;2022-11-23T05:34:23;7.50;;;3.73;;
3543;SDS011;1786;52.870;9.578;2022-11-23T05:36:50;3.87;;;3.10;;
3543;SDS011;1786;52.870;9.578;2022-11-23T05:39:17;7.40;;;2.93;;
3543;SDS011;1786;52.870;9.578;2022-11-23T05:41:47;11.23;;;3.87;;
3543;SDS011;1786;52.870;9.578;2022-11-23T05:44:34;10.43;;;3.87;;
3543;SDS011;1786;52.870;9.578;2022-11-23T05:47:03;5.70;;;3.10;;
3543;SDS011;1786;52.870;9.578;2022-11-23T05:49:32;8.67;;;3.03;;
3543;SDS011;1786;52.870;9.578;2022-11-23T05:52:00;12.13;;;4.00;;
3543;SDS011;1786;52.870;9.578;2022-11-23T05:54:28;4.47;;;3.30;;
3543;SDS011;1786;52.870;9.578;2022-11-23T05:57:04;6.80;;;3.30;;
3543;SDS011;1786;52.870;9.578;2022-11-23T05:59:36;11.90;;;3.53;;
3543;SDS011;1786;52.870;9.578;2022-11-23T06:02:03;7.73;;;3.40;;
3543;SDS011;1786;52.870;9.578;2022-11-23T06:04:33;7.97;;;3.70;;
3543;SDS011;1786;52.870;9.578;2022-11-23T06:06:59;6.20;;;3.37;;
3543;SDS011;1786;52.870;9.578;2022-11-23T06:09:34;8.43;;;2.23;;
3543;SDS011;1786;52.870;9.578;2022-11-23T06:12:06;4.90;;;3.03;;
3543;SDS011;1786;52.870;9.578;2022-11-23T06:14:33;7.97;;;4.23;;
3543;SDS011;1786;52.870;9.578;2022-11-23T06:17:00;12.17;;;4.43;;
3543;SDS011;1786;52.870;9.578;2022-11-23T06:19:35;8.77;;;3.00;;
3543;SDS011;1786;52.870;9.578;2022-11-23T06:22:03;4.00;;;2.97;;
3543;SDS011;1786;52.870;9.578;2022-11-23T06:24:35;9.47;;;3.10;;
3543;SDS011;1786;52.870;9.578;2022-11-23T06:27:34;10.80;;;5.73;;
3543;SDS011;1786;52.870;9.578;2022-11-23T06:30:05;6.13;;;4.07;;
3543;SDS011;1786;52.870;9.578;2022-11-23T06:32:32;10.33;;;5.47;;
3543;SDS011;1786;52.870;9.578;2022-11-23T06:34:59;9.80;;;4.43;;
3543;SDS011;1786;52.870;9.578;2022-11-23T06:37:29;5.33;;;3.90;;
3543;SDS011;1786;52.870;9.578;2022-11-23T06:39:56;10.40;;;3.83;;
3543;SDS011;1786;52.870;9.578;2022-11-23T06:42:24;10.73;;;3.77;;
3543;SDS011;1786;52.870;9.578;2022-11-23T06:45:17;8.83;;;4.90;;
3543;SDS011;1786;52.870;9.578;2022-11-23T06:47:45;6.90;;;3.17;;
3543;SDS011;1786;52.870;9.578;2022-11-23T06:50:12;7.30;;;3.53;;
3543;SDS011;1786;52.870;9.578;2022-11-23T06:52:42;5.70;;;3.30;;
3543;SDS011;1786;52.870;9.578;2022-11-23T06:55:09;6.03;;;3.13;;
3543;SDS011;1786;52.870;9.578;2022-11-23T06:57:36;5.07;;;3.50;;
3543;SDS011;1786;52.870;9.578;2022-11-23T07:00:03;7.27;;;2.83;;
3543;SDS011;1786;52.870;9.578;2022-11-23T07:02:35;7.17;;;3.80;;
3543;SDS011;1786;52.870;9.578;2022-11-23T07:05:01;6.57;;;3.07;;
3543;SDS011;1786;52.870;9.578;2022-11-23T07:07:30;13.80;;;4.80;;
3543;SDS011;1786;52.870;9.578;2022-11-23T07:10:05;9.53;;;3.07;;
3543;SDS011;1786;52.870;9.578;2022-11-23T07:12:44;6.30;;;3.90;;
3543;SDS011;1786;52.870;9.578;2022-11-23T07:15:13;3.80;;;3.27;;
3543;SDS011;1786;52.870;9.578;2022-11-23T07:17:42;7.10;;;3.10;;
3543;SDS011;1786;52.870;9.578;2022-11-23T07:20:12;7.13;;;2.60;;
3543;SDS011;1786;52.870;9.578;2022-11-23T07:22:40;5.30;;;2.60;;
3543;SDS011;1786;52.870;9.578;2022-11-23T07:25:06;5.43;;;2.87;;
3543;SDS011;1786;52.870;9.578;2022-11-23T07:27:34;3.87;;;2.63;;
3543;SDS011;1786;52.870;9.578;2022-11-23T07:30:01;5.67;;;2.60;;
3543;SDS011;1786;52.870;9.578;2022-11-23T07:32:29;7.47;;;3.13;;
3543;SDS011;1786;52.870;9.578;2022-11-23T07:34:55;7.97;;;3.10;;
3543;SDS011;1786;52.870;9.578;2022-11-23T07:37:23;8.07;;;3.00;;
3543;SDS011;1786;52.870;9.578;2022-11-23T07:39:50;3.90;;;2.97;;
3543;SDS011;1786;52.870;9.578;2022-11-23T07:42:26;8.73;;;3.47;;
3543;SDS011;1786;52.870;9.578;2022-11-23T07:45:09;13.33;;;3.33;;
3543;SDS011;1786;52.870;9.578;2022-11-23T07:47:41;8.80;;;2.97;;
3543;SDS011;1786;52.870;9.578;2022-11-23T07:50:09;7.67;;;3.80;;
3543;SDS011;1786;52.870;9.578;2022-11-23T07:52:37;6.20;;;2.80;;
3543;SDS011;1786;52.870;9.578;2022-11-23T07:55:05;5.20;;;2.60;;
3543;SDS011;1786;52.870;9.578;2022-11-23T07:57:32;7.80;;;2.47;;
3543;SDS011;1786;52.870;9.578;2022-11-23T07:59:58;6.87;;;3.17;;
3543;SDS011;1786;52.870;9.578;2022-11-23T08:02:25;6.63;;;1.93;;
3543;SDS011;1786;52.870;9.578;2022-11-23T08:04:52;10.30;;;2.40;;
3543;SDS011;1786;52.870;9.578;2022-11-23T08:07:18;4.77;;;2.57;;
3543;SDS011;1786;52.870;9.578;2022-11-23T08:09:45;6.23;;;3.20;;
3543;SDS011;1786;52.870;9.578;2022-11-23T08:12:12;4.77;;;2.90;;
3543;SDS011;1786;52.870;9.578;2022-11-23T08:14:38;6.57;;;3.43;;
3543;SDS011;1786;52.870;9.578;2022-11-23T08:17:05;10.13;;;3.23;;
3543;SDS011;1786;52.870;9.578;2022-11-23T08:19:33;4.10;;;3.20;;
3543;SDS011;1786;52.870;9.578;2022-11-23T08:21:59;3.80;;;2.80;;
3543;SDS011;1786;52.870;9.578;2022-11-23T08:24:26;3.77;;;2.90;;
3543;SDS011;1786;52.870;9.578;2022-11-23T08:26:52;4.93;;;3.20;;
3543;SDS011;1786;52.870;9.578;2022-11-23T08:29:19;10.37;;;3.17;;
3543;SDS011;1786;52.870;9.578;2022-11-23T08:31:46;6.60;;;2.93;;
3543;SDS011;1786;52.870;9.578;2022-11-23T08:34:12;10.70;;;2.37;;
3543;SDS011;1786;52.870;9.578;2022-11-23T08:36:39;3.90;;;2.73;;
3543;SDS011;1786;52.870;9.578;2022-11-23T08:39:06;10.33;;;3.20;;
3543;SDS011;1786;52.870;9.578;2022-11-23T08:41:34;6.07;;;3.30;;
3543;SDS011;1786;52.870;9.578;2022-11-23T08:44:00;4.50;;;2.87;;
3543;SDS011;1786;52.870;9.578;2022-11-23T08:46:27;6.10;;;2.40;;
3543;SDS011;1786;52.870;9.578;2022-11-23T08:48:54;7.47;;;2.53;;
3543;SDS011;1786;52.870;9.578;2022-11-23T08:51:20;3.70;;;2.47;;
3543;SDS011;1786;52.870;9.578;2022-11-23T08:53:49;5.90;;;4.00;;
3543;SDS011;1786;52.870;9.578;2022-11-23T08:56:16;2.57;;;2.20;;
3543;SDS011;1786;52.870;9.578;2022-11-23T08:58:43;4.33;;;2.37;;
3543;SDS011;1786;52.870;9.578;2022-11-23T09:01:11;4.80;;;2.50;;
3543;SDS011;1786;52.870;9.578;2022-11-23T09:03:39;5.00;;;2.87;;
3543;SDS011;1786;52.870;9.578;2022-11-23T09:06:06;9.10;;;3.47;;
3543;SDS011;1786;52.870;9.578;2022-11-23T09:08:33;10.63;;;4.53;;
3543;SDS011;1786;52.870;9.578;2022-11-23T09:11:01;10.90;;;3.40;;
3543;SDS011;1786;52.870;9.578;2022-11-23T09:13:30;8.87;;;3.40;;
3543;SDS011;1786;52.870;9.578;2022-11-23T09:16:00;5.37;;;3.00;;
3543;SDS011;1786;52.870;9.578;2022-11-23T09:18:27;7.00;;;3.67;;
3543;SDS011;1786;52.870;9.578;2022-11-23T09:21:00;4.33;;;2.30;;
3543;SDS011;1786;52.870;9.578;2022-11-23T09:23:28;7.77;;;3.40;;
3543;SDS011;1786;52.870;9.578;2022-11-23T09:25:56;13.60;;;3.20;;
3543;SDS011;1786;52.870;9.578;2022-11-23T09:28:27;7.67;;;2.53;;
3543;SDS011;1786;52.870;9.578;2022-11-23T09:30:54;5.97;;;3.13;;
3543;SDS011;1786;52.870;9.578;2022-11-23T09:33:22;7.50;;;2.20;;
3543;SDS011;1786;52.870;9.578;2022-11-23T09:35:57;9.80;;;2.60;;
3543;SDS011;1786;52.870;9.578;2022-11-23T09:38:25;8.63;;;3.00;;
3543;SDS011;1786;52.870;9.578;2022-11-23T09:46:57;8.73;;;2.63;;
3543;SDS011;1786;52.870;9.578;2022-11-23T09:49:59;6.47;;;3.43;;
3543;SDS011;1786;52.870;9.578;2022-11-23T09:52:34;3.37;;;3.07;;
3543;SDS011;1786;52.870;9.578;2022-11-23T09:55:04;4.73;;;3.10;;
3543;SDS011;1786;52.870;9.578;2022-11-23T09:57:39;12.33;;;3.57;;
3543;SDS011;1786;52.870;9.578;2022-11-23T10:00:16;11.93;;;3.80;;
3543;SDS011;1786;52.870;9.578;2022-11-23T10:02:45;3.80;;;3.47;;
3543;SDS011;1786;52.870;9.578;2022-11-23T10:05:19;7.83;;;2.90;;
3543;SDS011;1786;52.870;9.578;2022-11-23T10:08:03;2.90;;;2.60;;
3543;SDS011;1786;52.870;9.578;2022-11-23T10:10:43;3.57;;;2.97;;
3543;SDS011;1786;52.870;9.578;2022-11-23T10:13:21;6.37;;;2.77;;
3543;SDS011;1786;52.870;9.578;2022-11-23T10:24:20;3.03;;;2.80;;
3543;SDS011;1786;52.870;9.578;2022-11-23T10:26:54;4.47;;;3.57;;
3543;SDS011;1786;52.870;9.578;2022-11-23T10:29:31;4.90;;;2.83;;
3543;SDS011;1786;52.870;9.578;2022-11-23T10:32:00;7.07;;;2.90;;
3543;SDS011;1786;52.870;9.578;2022-11-23T10:34:48;5.67;;;2.77;;
3543;SDS011;1786;52.870;9.578;2022-11-23T10:37:22;3.80;;;2.93;;
3543;SDS011;1786;52.870;9.578;2022-11-23T10:39:48;12.10;;;2.97;;
3543;SDS011;1786;52.870;9.578;2022-11-23T10:44:45;4.60;;;2.07;;
3543;SDS011;1786;52.870;9.578;2022-11-23T10:47:35;7.10;;;3.03;;
3543;SDS011;1786;52.870;9.578;2022-11-23T10:50:18;3.87;;;2.40;;
3543;SDS011;1786;52.870;9.578;2022-11-23T10:52:51;6.93;;;3.20;;
3543;SDS011;1786;52.870;9.578;2022-11-23T10:55:26;10.03;;;3.47;;
3543;SDS011;1786;52.870;9.578;2022-11-23T10:57:55;6.17;;;3.17;;
3543;SDS011;1786;52.870;9.578;2022-11-23T11:00:23;6.30;;;2.40;;
3543;SDS011;1786;52.870;9.578;2022-11-23T11:02:56;7.67;;;2.77;;
3543;SDS011;1786;52.870;9.578;2022-11-23T11:05:35;3.03;;;2.73;;
3543;SDS011;1786;52.870;9.578;2022-11-23T11:08:31;12.97;;;2.37;;
3543;SDS011;1786;52.870;9.578;2022-11-23T11:13:41;10.80;;;3.67;;
3543;SDS011;1786;52.870;9.578;2022-11-23T11:16:34;9.30;;;4.13;;
3543;SDS011;1786;52.870;9.578;2022-11-23T11:19:24;21.00;;;6.47;;
3543;SDS011;1786;52.870;9.578;2022-11-23T11:21:53;10.17;;;5.10;;
3543;SDS011;1786;52.870;9.578;2022-11-23T11:24:32;8.77;;;5.30;;
3543;SDS011;1786;52.870;9.578;2022-11-23T11:27:04;11.70;;;2.90;;
3543;SDS011;1786;52.870;9.578;2022-11-23T11:32:16;8.37;;;3.13;;
3543;SDS011;1786;52.870;9.578;2022-11-23T11:34:59;8.67;;;2.40;;
3543;SDS011;1786;52.870;9.578;2022-11-23T11:37:45;4.87;;;2.57;;
3543;SDS011;1786;52.870;9.578;2022-11-23T11:40:20;3.00;;;2.50;;
3543;SDS011;1786;52.870;9.578;2022-11-23T11:42:56;6.00;;;2.70;;
3543;SDS011;1786;52.870;9.578;2022-11-23T11:45:30;7.17;;;2.93;;
3543;SDS011;1786;52.870;9.578;2022-11-23T11:48:03;5.93;;;2.67;;
3543;SDS011;1786;52.870;9.578;2022-11-23T11:50:40;5.80;;;1.80;;
3543;SDS011;1786;52.870;9.578;2022-11-23T11:53:14;5.10;;;2.40;;
3543;SDS011;1786;52.870;9.578;2022-11-23T11:55:50;5.70;;;2.90;;
3543;SDS011;1786;52.870;9.578;2022-11-23T11:58:21;5.60;;;2.60;;
3543;SDS011;1786;52.870;9.578;2022-11-23T12:00:52;5.20;;;1.90;;
3543;SDS011;1786;52.870;9.578;2022-11-23T12:03:39;3.93;;;2.30;;
3543;SDS011;1786;52.870;9.578;2022-11-23T12:06:12;5.33;;;2.03;;
3543;SDS011;1786;52.870;9.578;2022-11-23T12:09:36;3.13;;;1.90;;
3543;SDS011;1786;52.870;9.578;2022-11-23T12:11:44;4.00;;;1.83;;
3543;SDS011;1786;52.870;9.578;2022-11-23T12:14:12;3.13;;;2.30;;
3543;SDS011;1786;52.870;9.578;2022-11-23T12:19:58;5.00;;;1.90;;
3543;SDS011;1786;52.870;9.578;2022-11-23T12:25:27;1.63;;;1.50;;
3543;SDS011;1786;52.870;9.578;2022-11-23T12:28:14;4.67;;;1.83;;
3543;SDS011;1786;52.870;9.578;2022-11-23T12:33:28;5.80;;;2.13;;
3543;SDS011;1786;52.870;9.578;2022-11-23T12:38:54;3.37;;;2.10;;
3543;SDS011;1786;52.870;9.578;2022-11-23T12:44:38;2.63;;;2.23;;
3543;SDS011;1786;52.870;9.578;2022-11-23T12:47:31;3.70;;;2.13;;
3543;SDS011;1786;52.870;9.578;2022-11-23T12:59:08;3.10;;;1.67;;
3543;SDS011;1786;52.870;9.578;2022-11-23T13:01:40;8.90;;;2.33;;
3543;SDS011;1786;52.870;9.578;2022-11-23T13:04:17;3.37;;;2.20;;
3543;SDS011;1786;52.870;9.578;2022-11-23T13:10:31;1.63;;;1.53;;
3543;SDS011;1786;52.870;9.578;2022-11-23T13:16:02;6.87;;;1.70;;
3543;SDS011;1786;52.870;9.578;2022-11-23T13:23:44;8.20;;;2.70;;
3543;SDS011;1786;52.870;9.578;2022-11-23T13:26:18;5.87;;;2.30;;
3543;SDS011;1786;52.870;9.578;2022-11-23T13:28:50;5.70;;;1.97;;
3543;SDS011;1786;52.870;9.578;2022-11-23T13:31:20;4.53;;;1.87;;
3543;SDS011;1786;52.870;9.578;2022-11-23T13:33:59;4.63;;;1.80;;
3543;SDS011;1786;52.870;9.578;2022-11-23T13:39:59;4.13;;;2.20;;
3543;SDS011;1786;52.870;9.578;2022-11-23T13:42:11;5.90;;;2.00;;
3543;SDS011;1786;52.870;9.578;2022-11-23T13:44:38;6.13;;;2.17;;
3543;SDS011;1786;52.870;9.578;2022-11-23T13:47:05;1.80;;;1.50;;
3543;SDS011;1786;52.870;9.578;2022-11-23T13:49:34;10.33;;;4.27;;
3543;SDS011;1786;52.870;9.578;2022-11-23T13:52:46;8.60;;;4.63;;
3543;SDS011;1786;52.870;9.578;2022-11-23T13:54:55;3.23;;;1.70;;
3543;SDS011;1786;52.870;9.578;2022-11-23T13:57:34;4.60;;;1.70;;
3543;SDS011;1786;52.870;9.578;2022-11-23T14:14:32;2.53;;;1.53;;
3543;SDS011;1786;52.870;9.578;2022-11-23T14:28:56;2.33;;;2.13;;
3543;SDS011;1786;52.870;9.578;2022-11-23T14:34:35;4.60;;;1.60;;
3543;SDS011;1786;52.870;9.578;2022-11-23T14:37:27;3.67;;;2.00;;
3543;SDS011;1786;52.870;9.578;2022-11-23T14:43:11;6.90;;;2.47;;
3543;SDS011;1786;52.870;9.578;2022-11-23T14:45:44;7.30;;;2.90;;
3543;SDS011;1786;52.870;9.578;2022-11-23T14:48:22;9.20;;;2.70;;
3543;SDS011;1786;52.870;9.578;2022-11-23T14:50:54;3.40;;;2.43;;
3543;SDS011;1786;52.870;9.578;2022-11-23T14:53:33;2.40;;;2.20;;
3543;SDS011;1786;52.870;9.578;2022-11-23T14:59:07;5.00;;;3.00;;
3543;SDS011;1786;52.870;9.578;2022-11-23T15:01:44;3.57;;;2.47;;
3543;SDS011;1786;52.870;9.578;2022-11-23T15:04:32;3.80;;;2.80;;
3543;SDS011;1786;52.870;9.578;2022-11-23T15:07:05;2.90;;;2.47;;
3543;SDS011;1786;52.870;9.578;2022-11-23T15:09:56;4.47;;;2.50;;
3543;SDS011;1786;52.870;9.578;2022-11-23T15:12:42;7.00;;;2.50;;
3543;SDS011;1786;52.870;9.578;2022-11-23T15:15:31;6.20;;;3.30;;
3543;SDS011;1786;52.870;9.578;2022-11-23T15:18:00;9.83;;;4.93;;
3543;SDS011;1786;52.870;9.578;2022-11-23T15:20:34;13.20;;;5.97;;
3543;SDS011;1786;52.870;9.578;2022-11-23T15:23:10;9.70;;;4.50;;
3543;SDS011;1786;52.870;9.578;2022-11-23T15:25:52;13.30;;;7.30;;
3543;SDS011;1786;52.870;9.578;2022-11-23T15:28:26;11.90;;;5.03;;
3543;SDS011;1786;52.870;9.578;2022-11-23T15:30:54;3.80;;;3.60;;
3543;SDS011;1786;52.870;9.578;2022-11-23T15:33:24;3.87;;;3.50;;
3543;SDS011;1786;52.870;9.578;2022-11-23T15:35:51;7.83;;;3.60;;
3543;SDS011;1786;52.870;9.578;2022-11-23T15:38:19;5.80;;;3.00;;
3543;SDS011;1786;52.870;9.578;2022-11-23T15:40:49;5.13;;;2.40;;
3543;SDS011;1786;52.870;9.578;2022-11-23T15:43:17;3.57;;;2.10;;
3543;SDS011;1786;52.870;9.578;2022-11-23T15:48:20;3.20;;;2.90;;
3543;SDS011;1786;52.870;9.578;2022-11-23T15:50:53;5.57;;;3.50;;
3543;SDS011;1786;52.870;9.578;2022-11-23T15:53:28;4.73;;;4.20;;
3543;SDS011;1786;52.870;9.578;2022-11-23T15:56:02;8.23;;;5.23;;
3543;SDS011;1786;52.870;9.578;2022-11-23T15:58:31;7.87;;;5.40;;
3543;SDS011;1786;52.870;9.578;2022-11-23T16:01:04;8.30;;;6.50;;
3543;SDS011;1786;52.870;9.578;2022-11-23T16:03:40;16.53;;;6.40;;
3543;SDS011;1786;52.870;9.578;2022-11-23T16:06:21;9.40;;;6.40;;
3543;SDS011;1786;52.870;9.578;2022-11-23T16:08:50;13.70;;;8.37;;
3543;SDS011;1786;52.870;9.578;2022-11-23T16:11:17;17.23;;;7.20;;
3543;SDS011;1786;52.870;9.578;2022-11-23T16:13:47;17.47;;;10.40;;
3543;SDS011;1786;52.870;9.578;2022-11-23T16:16:15;17.80;;;7.60;;
3543;SDS011;1786;52.870;9.578;2022-11-23T16:18:45;12.53;;;5.90;;
3543;SDS011;1786;52.870;9.578;2022-11-23T16:21:15;10.63;;;7.30;;
3543;SDS011;1786;52.870;9.578;2022-11-23T16:23:54;7.90;;;3.60;;
3543;SDS011;1786;52.870;9.578;2022-11-23T16:26:29;3.70;;;3.37;;
3543;SDS011;1786;52.870;9.578;2022-11-23T16:28:57;7.43;;;4.00;;
3543;SDS011;1786;52.870;9.578;2022-11-23T16:31:29;10.93;;;4.17;;
3543;SDS011;1786;52.870;9.578;2022-11-23T16:34:02;10.33;;;3.83;;
3543;SDS011;1786;52.870;9.578;2022-11-23T16:36:35;12.60;;;4.20;;
3543;SDS011;1786;52.870;9.578;2022-11-23T16:39:01;10.30;;;3.73;;
3543;SDS011;1786;52.870;9.578;2022-11-23T16:41:31;5.67;;;2.97;;
3543;SDS011;1786;52.870;9.578;2022-11-23T16:43:58;6.47;;;3.50;;
3543;SDS011;1786;52.870;9.578;2022-11-23T16:46:25;11.47;;;3.47;;
3543;SDS011;1786;52.870;9.578;2022-11-23T16:48:52;6.73;;;3.77;;
3543;SDS011;1786;52.870;9.578;2022-11-23T16:51:22;11.17;;;2.60;;
3543;SDS011;1786;52.870;9.578;2022-11-23T16:53:49;7.17;;;3.20;;
3543;SDS011;1786;52.870;9.578;2022-11-23T16:56:35;6.43;;;3.57;;
3543;SDS011;1786;52.870;9.578;2022-11-23T16:59:03;6.20;;;2.40;;
3543;SDS011;1786;52.870;9.578;2022-11-23T17:01:30;7.73;;;3.17;;
3543;SDS011;1786;52.870;9.578;2022-11-23T17:03:58;11.30;;;3.00;;
3543;SDS011;1786;52.870;9.578;2022-11-23T17:06:25;8.90;;;3.50;;
3543;SDS011;1786;52.870;9.578;2022-11-23T17:08:52;5.63;;;3.20;;
3543;SDS011;1786;52.870;9.578;2022-11-23T17:11:33;14.00;;;3.73;;
3543;SDS011;1786;52.870;9.578;2022-11-23T17:14:02;19.63;;;4.63;;
3543;SDS011;1786;52.870;9.578;2022-11-23T17:16:29;8.67;;;3.80;;
3543;SDS011;1786;52.870;9.578;2022-11-23T17:18:56;5.90;;;2.50;;
3543;SDS011;1786;52.870;9.578;2022-11-23T17:21:23;5.47;;;2.80;;
3543;SDS011;1786;52.870;9.578;2022-11-23T17:23:49;10.53;;;2.50;;
3543;SDS011;1786;52.870;9.578;2022-11-23T17:29:02;8.23;;;3.13;;